sensor_id;sensor_type;location;lat;lon;timestamp;P1;durP1;ratioP1;P2;durP2;ratioP2
11837;SDS011;5978;51.020;6.764;2023-02-15T00:00:26;44.63;;;23.93;;
11837;SDS011;5978;51.020;6.764;2023-02-15T00:02:51;45.70;;;22.97;;
11837;SDS011;5978;51.020;6.764;2023-02-15T00:05:17;44.40;;;20.87;;
11837;SDS011;5978;51.020;6.764;2023-02-15T00:07:43;43.87;;;23.37;;
11837;SDS011;5978;51.020;6.764;2023-02-15T00:10:08;43.53;;;23.83;;
11837;SDS011;5978;51.020;6.764;2023-02-15T00:12:34;46.00;;;21.83;;
11837;SDS011;5978;51.020;6.764;2023-02-15T00:14:59;41.40;;;21.23;;
11837;SDS011;5978;51.020;6.764;2023-02-15T00:17:28;41.83;;;21.83;;
11837;SDS011;5978;51.020;6.764;2023-02-15T00:19:54;44.08;;;23.20;;
11837;SDS011;5978;51.020;6.764;2023-02-15T00:22:20;43.80;;;24.63;;
11837;SDS011;5978;51.020;6.764;2023-02-15T00:24:45;45.10;;;24.67;;
11837;SDS011;5978;51.020;6.764;2023-02-15T00:27:11;43.93;;;23.50;;
11837;SDS011;5978;51.020;6.764;2023-02-15T00:29:36;45.03;;;24.90;;
11837;SDS011;5978;51.020;6.764;2023-02-15T00:32:02;41.70;;;22.70;;
11837;SDS011;5978;51.020;6.764;2023-02-15T00:34:28;43.30;;;22.97;;
11837;SDS011;5978;51.020;6.764;2023-02-15T00:36:53;43.40;;;25.20;;
11837;SDS011;5978;51.020;6.764;2023-02-15T00:39:19;47.00;;;23.37;;
11837;SDS011;5978;51.020;6.764;2023-02-15T00:41:45;44.83;;;22.30;;
11837;SDS011;5978;51.020;6.764;2023-02-15T00:44:12;41.90;;;21.58;;
11837;SDS011;5978;51.020;6.764;2023-02-15T00:46:38;44.50;;;22.52;;
11837;SDS011;5978;51.020;6.764;2023-02-15T00:49:04;40.20;;;22.30;;
11837;SDS011;5978;51.020;6.764;2023-02-15T00:51:30;49.47;;;24.30;;
11837;SDS011;5978;51.020;6.764;2023-02-15T00:53:56;41.50;;;21.52;;
11837;SDS011;5978;51.020;6.764;2023-02-15T00:56:21;48.60;;;24.13;;
11837;SDS011;5978;51.020;6.764;2023-02-15T00:58:47;40.90;;;20.87;;
11837;SDS011;5978;51.020;6.764;2023-02-15T01:01:14;44.13;;;21.50;;
11837;SDS011;5978;51.020;6.764;2023-02-15T01:03:41;44.15;;;21.90;;
11837;SDS011;5978;51.020;6.764;2023-02-15T01:06:07;39.17;;;23.13;;
11837;SDS011;5978;51.020;6.764;2023-02-15T01:08:33;45.25;;;21.65;;
11837;SDS011;5978;51.020;6.764;2023-02-15T01:11:06;44.70;;;24.97;;
11837;SDS011;5978;51.020;6.764;2023-02-15T01:13:33;39.95;;;20.98;;
11837;SDS011;5978;51.020;6.764;2023-02-15T01:15:59;40.83;;;23.08;;
11837;SDS011;5978;51.020;6.764;2023-02-15T01:18:25;37.73;;;22.07;;
11837;SDS011;5978;51.020;6.764;2023-02-15T01:20:51;41.60;;;21.07;;
11837;SDS011;5978;51.020;6.764;2023-02-15T01:23:17;42.43;;;22.20;;
11837;SDS011;5978;51.020;6.764;2023-02-15T01:25:42;52.23;;;23.33;;
11837;SDS011;5978;51.020;6.764;2023-02-15T01:28:08;50.10;;;24.97;;
11837;SDS011;5978;51.020;6.764;2023-02-15T01:30:34;50.20;;;23.60;;
11837;SDS011;5978;51.020;6.764;2023-02-15T01:33:00;43.60;;;22.20;;
11837;SDS011;5978;51.020;6.764;2023-02-15T01:35:26;43.90;;;22.30;;
11837;SDS011;5978;51.020;6.764;2023-02-15T01:37:52;45.13;;;23.40;;
11837;SDS011;5978;51.020;6.764;2023-02-15T01:40:19;42.78;;;23.10;;
11837;SDS011;5978;51.020;6.764;2023-02-15T01:42:45;44.83;;;24.43;;
11837;SDS011;5978;51.020;6.764;2023-02-15T01:45:24;45.03;;;22.40;;
11837;SDS011;5978;51.020;6.764;2023-02-15T01:48:06;41.83;;;22.00;;
11837;SDS011;5978;51.020;6.764;2023-02-15T01:50:56;42.45;;;23.13;;
11837;SDS011;5978;51.020;6.764;2023-02-15T01:53:30;42.10;;;23.40;;
11837;SDS011;5978;51.020;6.764;2023-02-15T01:55:59;44.70;;;22.70;;
11837;SDS011;5978;51.020;6.764;2023-02-15T01:58:29;48.10;;;22.85;;
11837;SDS011;5978;51.020;6.764;2023-02-15T02:00:57;43.72;;;23.15;;
11837;SDS011;5978;51.020;6.764;2023-02-15T02:03:36;42.15;;;22.13;;
11837;SDS011;5978;51.020;6.764;2023-02-15T02:06:19;46.58;;;23.65;;
11837;SDS011;5978;51.020;6.764;2023-02-15T02:08:45;43.75;;;23.23;;
11837;SDS011;5978;51.020;6.764;2023-02-15T02:11:12;46.47;;;22.40;;
11837;SDS011;5978;51.020;6.764;2023-02-15T02:13:42;45.20;;;22.67;;
11837;SDS011;5978;51.020;6.764;2023-02-15T02:16:11;43.97;;;22.63;;
11837;SDS011;5978;51.020;6.764;2023-02-15T02:18:49;44.75;;;22.63;;
11837;SDS011;5978;51.020;6.764;2023-02-15T02:27:34;44.67;;;22.38;;
11837;SDS011;5978;51.020;6.764;2023-02-15T02:36:05;47.38;;;22.40;;
11837;SDS011;5978;51.020;6.764;2023-02-15T02:41:44;47.92;;;22.77;;
11837;SDS011;5978;51.020;6.764;2023-02-15T02:44:21;38.47;;;20.23;;
11837;SDS011;5978;51.020;6.764;2023-02-15T02:46:55;41.55;;;21.08;;
11837;SDS011;5978;51.020;6.764;2023-02-15T02:49:29;51.53;;;24.48;;
11837;SDS011;5978;51.020;6.764;2023-02-15T02:52:00;41.65;;;21.98;;
11837;SDS011;5978;51.020;6.764;2023-02-15T02:54:27;45.42;;;24.45;;
11837;SDS011;5978;51.020;6.764;2023-02-15T02:56:54;52.90;;;23.77;;
11837;SDS011;5978;51.020;6.764;2023-02-15T02:59:30;46.95;;;22.67;;
11837;SDS011;5978;51.020;6.764;2023-02-15T03:02:04;49.40;;;21.15;;
11837;SDS011;5978;51.020;6.764;2023-02-15T03:04:38;42.40;;;21.52;;
11837;SDS011;5978;51.020;6.764;2023-02-15T03:07:10;38.45;;;20.05;;
11837;SDS011;5978;51.020;6.764;2023-02-15T03:09:41;41.88;;;22.70;;
11837;SDS011;5978;51.020;6.764;2023-02-15T03:12:09;43.42;;;23.02;;
11837;SDS011;5978;51.020;6.764;2023-02-15T03:14:40;40.65;;;22.23;;
11837;SDS011;5978;51.020;6.764;2023-02-15T03:17:09;51.38;;;23.88;;
11837;SDS011;5978;51.020;6.764;2023-02-15T03:19:37;42.30;;;20.75;;
11837;SDS011;5978;51.020;6.764;2023-02-15T03:25:02;45.53;;;24.20;;
11837;SDS011;5978;51.020;6.764;2023-02-15T03:27:36;50.80;;;22.48;;
11837;SDS011;5978;51.020;6.764;2023-02-15T03:30:09;48.42;;;22.15;;
11837;SDS011;5978;51.020;6.764;2023-02-15T03:32:36;45.33;;;20.50;;
11837;SDS011;5978;51.020;6.764;2023-02-15T03:35:03;50.13;;;25.00;;
11837;SDS011;5978;51.020;6.764;2023-02-15T03:45:44;51.42;;;22.30;;
11837;SDS011;5978;51.020;6.764;2023-02-15T03:48:33;52.22;;;25.05;;
11837;SDS011;5978;51.020;6.764;2023-02-15T03:51:05;43.78;;;18.92;;
11837;SDS011;5978;51.020;6.764;2023-02-15T03:53:54;42.72;;;21.60;;
11837;SDS011;5978;51.020;6.764;2023-02-15T03:56:20;43.30;;;21.60;;
11837;SDS011;5978;51.020;6.764;2023-02-15T03:58:46;43.30;;;21.23;;
11837;SDS011;5978;51.020;6.764;2023-02-15T04:04:20;41.10;;;22.02;;
11837;SDS011;5978;51.020;6.764;2023-02-15T04:06:48;39.13;;;19.85;;
11837;SDS011;5978;51.020;6.764;2023-02-15T04:09:14;48.23;;;22.77;;
11837;SDS011;5978;51.020;6.764;2023-02-15T04:11:58;46.20;;;21.45;;
11837;SDS011;5978;51.020;6.764;2023-02-15T04:14:24;53.93;;;21.53;;
11837;SDS011;5978;51.020;6.764;2023-02-15T04:17:08;52.38;;;23.95;;
11837;SDS011;5978;51.020;6.764;2023-02-15T04:19:34;45.60;;;22.85;;
11837;SDS011;5978;51.020;6.764;2023-02-15T04:22:19;43.63;;;20.02;;
11837;SDS011;5978;51.020;6.764;2023-02-15T04:25:03;43.55;;;21.13;;
11837;SDS011;5978;51.020;6.764;2023-02-15T04:27:35;49.88;;;23.38;;
11837;SDS011;5978;51.020;6.764;2023-02-15T04:30:02;44.83;;;21.98;;
11837;SDS011;5978;51.020;6.764;2023-02-15T04:32:28;49.08;;;22.50;;
11837;SDS011;5978;51.020;6.764;2023-02-15T04:34:53;44.90;;;22.70;;
11837;SDS011;5978;51.020;6.764;2023-02-15T04:37:19;44.93;;;21.27;;
11837;SDS011;5978;51.020;6.764;2023-02-15T04:39:44;48.03;;;23.27;;
11837;SDS011;5978;51.020;6.764;2023-02-15T04:42:10;44.47;;;21.80;;
11837;SDS011;5978;51.020;6.764;2023-02-15T04:44:36;41.80;;;21.07;;
11837;SDS011;5978;51.020;6.764;2023-02-15T04:47:01;42.70;;;22.13;;
11837;SDS011;5978;51.020;6.764;2023-02-15T04:49:27;42.77;;;20.33;;
11837;SDS011;5978;51.020;6.764;2023-02-15T04:51:52;41.27;;;18.53;;
11837;SDS011;5978;51.020;6.764;2023-02-15T04:54:18;54.47;;;22.50;;
11837;SDS011;5978;51.020;6.764;2023-02-15T04:56:43;42.20;;;20.67;;
11837;SDS011;5978;51.020;6.764;2023-02-15T04:59:10;37.23;;;21.37;;
11837;SDS011;5978;51.020;6.764;2023-02-15T05:01:36;48.08;;;22.50;;
11837;SDS011;5978;51.020;6.764;2023-02-15T05:04:02;39.77;;;19.60;;
11837;SDS011;5978;51.020;6.764;2023-02-15T05:06:28;32.42;;;18.30;;
11837;SDS011;5978;51.020;6.764;2023-02-15T05:08:54;41.03;;;20.90;;
11837;SDS011;5978;51.020;6.764;2023-02-15T05:11:19;45.23;;;21.77;;
11837;SDS011;5978;51.020;6.764;2023-02-15T05:13:45;49.47;;;20.70;;
11837;SDS011;5978;51.020;6.764;2023-02-15T05:16:10;48.57;;;20.93;;
11837;SDS011;5978;51.020;6.764;2023-02-15T05:18:36;47.83;;;21.00;;
11837;SDS011;5978;51.020;6.764;2023-02-15T05:21:01;46.60;;;21.37;;
11837;SDS011;5978;51.020;6.764;2023-02-15T05:23:27;42.83;;;20.90;;
11837;SDS011;5978;51.020;6.764;2023-02-15T05:25:53;40.80;;;21.30;;
11837;SDS011;5978;51.020;6.764;2023-02-15T05:28:37;48.55;;;19.85;;
11837;SDS011;5978;51.020;6.764;2023-02-15T05:31:07;37.30;;;20.27;;
11837;SDS011;5978;51.020;6.764;2023-02-15T05:33:33;43.35;;;20.73;;
11837;SDS011;5978;51.020;6.764;2023-02-15T05:35:59;40.53;;;19.95;;
11837;SDS011;5978;51.020;6.764;2023-02-15T05:38:25;35.42;;;18.85;;
11837;SDS011;5978;51.020;6.764;2023-02-15T05:40:51;46.40;;;20.50;;
11837;SDS011;5978;51.020;6.764;2023-02-15T05:43:17;39.80;;;20.35;;
11837;SDS011;5978;51.020;6.764;2023-02-15T05:45:46;40.37;;;20.00;;
11837;SDS011;5978;51.020;6.764;2023-02-15T05:48:17;39.05;;;20.38;;
11837;SDS011;5978;51.020;6.764;2023-02-15T05:50:44;39.35;;;21.20;;
11837;SDS011;5978;51.020;6.764;2023-02-15T05:53:09;52.72;;;22.10;;
11837;SDS011;5978;51.020;6.764;2023-02-15T05:55:38;44.37;;;20.43;;
11837;SDS011;5978;51.020;6.764;2023-02-15T05:58:05;37.58;;;20.85;;
11837;SDS011;5978;51.020;6.764;2023-02-15T06:00:31;40.03;;;21.38;;
11837;SDS011;5978;51.020;6.764;2023-02-15T06:02:57;34.83;;;19.53;;
11837;SDS011;5978;51.020;6.764;2023-02-15T06:05:22;39.43;;;18.63;;
11837;SDS011;5978;51.020;6.764;2023-02-15T06:07:48;41.13;;;19.53;;
11837;SDS011;5978;51.020;6.764;2023-02-15T06:10:14;39.57;;;19.97;;
11837;SDS011;5978;51.020;6.764;2023-02-15T06:12:39;39.93;;;19.80;;
11837;SDS011;5978;51.020;6.764;2023-02-15T06:15:05;45.53;;;20.23;;
11837;SDS011;5978;51.020;6.764;2023-02-15T06:17:31;38.50;;;18.80;;
11837;SDS011;5978;51.020;6.764;2023-02-15T06:19:56;38.40;;;19.03;;
11837;SDS011;5978;51.020;6.764;2023-02-15T06:22:22;36.97;;;19.53;;
11837;SDS011;5978;51.020;6.764;2023-02-15T06:24:47;45.57;;;20.27;;
11837;SDS011;5978;51.020;6.764;2023-02-15T06:27:13;49.43;;;20.83;;
11837;SDS011;5978;51.020;6.764;2023-02-15T06:29:39;43.77;;;21.13;;
11837;SDS011;5978;51.020;6.764;2023-02-15T06:32:04;36.57;;;17.63;;
11837;SDS011;5978;51.020;6.764;2023-02-15T06:34:30;44.17;;;21.40;;
11837;SDS011;5978;51.020;6.764;2023-02-15T06:36:56;36.87;;;17.70;;
11837;SDS011;5978;51.020;6.764;2023-02-15T06:39:21;37.23;;;19.07;;
11837;SDS011;5978;51.020;6.764;2023-02-15T06:41:47;38.60;;;19.43;;
11837;SDS011;5978;51.020;6.764;2023-02-15T06:44:13;39.80;;;20.20;;
11837;SDS011;5978;51.020;6.764;2023-02-15T06:46:39;44.40;;;18.95;;
11837;SDS011;5978;51.020;6.764;2023-02-15T06:49:04;37.90;;;18.67;;
11837;SDS011;5978;51.020;6.764;2023-02-15T06:51:30;41.23;;;20.83;;
11837;SDS011;5978;51.020;6.764;2023-02-15T06:53:55;37.07;;;19.53;;
11837;SDS011;5978;51.020;6.764;2023-02-15T06:56:21;40.10;;;19.97;;
11837;SDS011;5978;51.020;6.764;2023-02-15T06:58:46;41.57;;;18.77;;
11837;SDS011;5978;51.020;6.764;2023-02-15T07:01:14;42.13;;;18.42;;
11837;SDS011;5978;51.020;6.764;2023-02-15T07:03:40;37.27;;;19.63;;
11837;SDS011;5978;51.020;6.764;2023-02-15T07:06:05;37.27;;;17.70;;
11837;SDS011;5978;51.020;6.764;2023-02-15T07:08:33;40.92;;;20.67;;
11837;SDS011;5978;51.020;6.764;2023-02-15T07:10:59;43.70;;;19.17;;
11837;SDS011;5978;51.020;6.764;2023-02-15T07:13:46;49.38;;;20.77;;
11837;SDS011;5978;51.020;6.764;2023-02-15T07:16:12;40.67;;;18.42;;
11837;SDS011;5978;51.020;6.764;2023-02-15T07:18:38;38.35;;;18.55;;
11837;SDS011;5978;51.020;6.764;2023-02-15T07:21:04;36.63;;;19.90;;
11837;SDS011;5978;51.020;6.764;2023-02-15T07:23:33;41.30;;;20.42;;
11837;SDS011;5978;51.020;6.764;2023-02-15T07:26:02;42.45;;;18.00;;
11837;SDS011;5978;51.020;6.764;2023-02-15T07:28:28;36.13;;;20.20;;
11837;SDS011;5978;51.020;6.764;2023-02-15T07:30:54;33.93;;;17.17;;
11837;SDS011;5978;51.020;6.764;2023-02-15T07:33:20;38.60;;;17.87;;
11837;SDS011;5978;51.020;6.764;2023-02-15T07:35:49;41.35;;;18.10;;
11837;SDS011;5978;51.020;6.764;2023-02-15T07:38:16;38.78;;;19.38;;
11837;SDS011;5978;51.020;6.764;2023-02-15T07:40:42;48.03;;;19.40;;
11837;SDS011;5978;51.020;6.764;2023-02-15T07:43:08;35.13;;;16.70;;
11837;SDS011;5978;51.020;6.764;2023-02-15T07:45:33;45.43;;;18.47;;
11837;SDS011;5978;51.020;6.764;2023-02-15T07:48:02;46.27;;;19.50;;
11837;SDS011;5978;51.020;6.764;2023-02-15T07:50:29;33.05;;;18.55;;
11837;SDS011;5978;51.020;6.764;2023-02-15T07:52:54;43.47;;;19.20;;
11837;SDS011;5978;51.020;6.764;2023-02-15T07:55:20;44.07;;;19.10;;
11837;SDS011;5978;51.020;6.764;2023-02-15T07:57:46;37.13;;;18.90;;
11837;SDS011;5978;51.020;6.764;2023-02-15T08:00:13;41.72;;;18.20;;
11837;SDS011;5978;51.020;6.764;2023-02-15T08:02:40;33.28;;;18.63;;
11837;SDS011;5978;51.020;6.764;2023-02-15T08:05:06;32.10;;;18.30;;
11837;SDS011;5978;51.020;6.764;2023-02-15T08:07:32;39.93;;;19.30;;
11837;SDS011;5978;51.020;6.764;2023-02-15T08:09:57;31.90;;;17.33;;
11837;SDS011;5978;51.020;6.764;2023-02-15T08:12:25;35.75;;;17.33;;
11837;SDS011;5978;51.020;6.764;2023-02-15T08:14:51;35.75;;;19.33;;
11837;SDS011;5978;51.020;6.764;2023-02-15T08:17:17;27.43;;;17.10;;
11837;SDS011;5978;51.020;6.764;2023-02-15T08:19:43;32.90;;;16.80;;
11837;SDS011;5978;51.020;6.764;2023-02-15T08:22:10;34.80;;;19.10;;
11837;SDS011;5978;51.020;6.764;2023-02-15T08:24:39;33.90;;;17.17;;
11837;SDS011;5978;51.020;6.764;2023-02-15T08:27:06;37.13;;;18.85;;
11837;SDS011;5978;51.020;6.764;2023-02-15T08:29:33;28.00;;;16.77;;
11837;SDS011;5978;51.020;6.764;2023-02-15T08:32:02;36.90;;;17.80;;
11837;SDS011;5978;51.020;6.764;2023-02-15T08:34:30;31.35;;;17.90;;
11837;SDS011;5978;51.020;6.764;2023-02-15T08:36:59;29.35;;;17.40;;
11837;SDS011;5978;51.020;6.764;2023-02-15T08:39:25;28.00;;;16.45;;
11837;SDS011;5978;51.020;6.764;2023-02-15T08:41:51;28.23;;;16.20;;
11837;SDS011;5978;51.020;6.764;2023-02-15T08:44:17;36.07;;;15.83;;
11837;SDS011;5978;51.020;6.764;2023-02-15T08:46:45;27.48;;;14.75;;
11837;SDS011;5978;51.020;6.764;2023-02-15T08:49:12;28.60;;;14.70;;
11837;SDS011;5978;51.020;6.764;2023-02-15T08:51:41;30.02;;;16.15;;
11837;SDS011;5978;51.020;6.764;2023-02-15T08:54:08;22.60;;;15.70;;
11837;SDS011;5978;51.020;6.764;2023-02-15T08:56:36;26.70;;;14.70;;
11837;SDS011;5978;51.020;6.764;2023-02-15T08:59:03;24.83;;;14.40;;
11837;SDS011;5978;51.020;6.764;2023-02-15T09:01:30;23.20;;;13.70;;
11837;SDS011;5978;51.020;6.764;2023-02-15T09:03:58;28.67;;;15.95;;
11837;SDS011;5978;51.020;6.764;2023-02-15T09:06:25;25.92;;;15.38;;
11837;SDS011;5978;51.020;6.764;2023-02-15T09:08:51;25.42;;;14.82;;
11837;SDS011;5978;51.020;6.764;2023-02-15T09:11:21;27.00;;;15.30;;
11837;SDS011;5978;51.020;6.764;2023-02-15T09:13:58;24.63;;;14.75;;
11837;SDS011;5978;51.020;6.764;2023-02-15T09:16:27;27.08;;;14.20;;
11837;SDS011;5978;51.020;6.764;2023-02-15T09:18:53;26.08;;;15.00;;
11837;SDS011;5978;51.020;6.764;2023-02-15T09:21:20;22.83;;;14.07;;
11837;SDS011;5978;51.020;6.764;2023-02-15T09:23:48;29.60;;;17.45;;
11837;SDS011;5978;51.020;6.764;2023-02-15T09:26:16;28.13;;;14.65;;
11837;SDS011;5978;51.020;6.764;2023-02-15T09:28:44;28.38;;;14.10;;
11837;SDS011;5978;51.020;6.764;2023-02-15T09:31:11;25.48;;;16.20;;
11837;SDS011;5978;51.020;6.764;2023-02-15T09:33:42;22.95;;;14.07;;
11837;SDS011;5978;51.020;6.764;2023-02-15T09:38:45;26.00;;;14.70;;
11837;SDS011;5978;51.020;6.764;2023-02-15T09:43:59;25.10;;;14.32;;
11837;SDS011;5978;51.020;6.764;2023-02-15T09:46:57;23.67;;;14.38;;
11837;SDS011;5978;51.020;6.764;2023-02-15T09:49:54;22.33;;;14.48;;
11837;SDS011;5978;51.020;6.764;2023-02-15T09:52:34;25.77;;;15.35;;
11837;SDS011;5978;51.020;6.764;2023-02-15T09:55:24;27.15;;;15.18;;
11837;SDS011;5978;51.020;6.764;2023-02-15T09:58:05;22.35;;;14.43;;
11837;SDS011;5978;51.020;6.764;2023-02-15T10:00:38;29.85;;;17.30;;
11837;SDS011;5978;51.020;6.764;2023-02-15T10:05:58;25.20;;;15.55;;
11837;SDS011;5978;51.020;6.764;2023-02-15T10:08:58;22.40;;;14.32;;
11837;SDS011;5978;51.020;6.764;2023-02-15T10:20:15;27.20;;;15.60;;
11837;SDS011;5978;51.020;6.764;2023-02-15T10:25:46;25.33;;;15.63;;
11837;SDS011;5978;51.020;6.764;2023-02-15T10:28:42;28.20;;;15.15;;
11837;SDS011;5978;51.020;6.764;2023-02-15T10:31:24;22.80;;;14.07;;
11837;SDS011;5978;51.020;6.764;2023-02-15T10:33:55;25.90;;;16.17;;
11837;SDS011;5978;51.020;6.764;2023-02-15T10:42:11;28.83;;;13.52;;
11837;SDS011;5978;51.020;6.764;2023-02-15T10:44:50;24.23;;;15.48;;
11837;SDS011;5978;51.020;6.764;2023-02-15T10:47:41;24.17;;;14.80;;
11837;SDS011;5978;51.020;6.764;2023-02-15T10:53:07;21.90;;;14.95;;
11837;SDS011;5978;51.020;6.764;2023-02-15T11:04:14;26.95;;;15.40;;
11837;SDS011;5978;51.020;6.764;2023-02-15T11:07:15;26.65;;;14.10;;
11837;SDS011;5978;51.020;6.764;2023-02-15T11:09:49;18.17;;;13.65;;
11837;SDS011;5978;51.020;6.764;2023-02-15T11:12:24;20.43;;;13.60;;
11837;SDS011;5978;51.020;6.764;2023-02-15T11:17:28;19.07;;;13.80;;
11837;SDS011;5978;51.020;6.764;2023-02-15T11:22:35;22.73;;;14.43;;
11837;SDS011;5978;51.020;6.764;2023-02-15T11:25:01;17.73;;;12.77;;
11837;SDS011;5978;51.020;6.764;2023-02-15T11:27:39;21.03;;;14.37;;
11837;SDS011;5978;51.020;6.764;2023-02-15T11:30:09;21.70;;;13.20;;
11837;SDS011;5978;51.020;6.764;2023-02-15T11:32:39;21.03;;;14.03;;
11837;SDS011;5978;51.020;6.764;2023-02-15T11:40:22;22.80;;;14.70;;
11837;SDS011;5978;51.020;6.764;2023-02-15T11:42:52;19.83;;;13.60;;
11837;SDS011;5978;51.020;6.764;2023-02-15T11:47:52;20.53;;;14.43;;
11837;SDS011;5978;51.020;6.764;2023-02-15T11:50:22;18.90;;;14.07;;
11837;SDS011;5978;51.020;6.764;2023-02-15T11:52:54;19.93;;;14.23;;
11837;SDS011;5978;51.020;6.764;2023-02-15T11:55:24;20.93;;;15.07;;
11837;SDS011;5978;51.020;6.764;2023-02-15T11:57:55;20.83;;;14.67;;
11837;SDS011;5978;51.020;6.764;2023-02-15T12:00:32;17.93;;;14.43;;
11837;SDS011;5978;51.020;6.764;2023-02-15T12:03:01;19.33;;;14.83;;
11837;SDS011;5978;51.020;6.764;2023-02-15T12:05:42;18.57;;;13.50;;
11837;SDS011;5978;51.020;6.764;2023-02-15T12:08:19;20.30;;;14.27;;
11837;SDS011;5978;51.020;6.764;2023-02-15T12:11:29;16.37;;;13.77;;
11837;SDS011;5978;51.020;6.764;2023-02-15T12:13:37;19.70;;;15.10;;
11837;SDS011;5978;51.020;6.764;2023-02-15T12:16:20;18.70;;;14.17;;
11837;SDS011;5978;51.020;6.764;2023-02-15T12:18:45;18.60;;;12.33;;
11837;SDS011;5978;51.020;6.764;2023-02-15T12:23:51;18.97;;;14.30;;
11837;SDS011;5978;51.020;6.764;2023-02-15T12:26:29;18.93;;;13.70;;
11837;SDS011;5978;51.020;6.764;2023-02-15T12:29:00;18.67;;;13.97;;
11837;SDS011;5978;51.020;6.764;2023-02-15T12:31:33;18.83;;;14.03;;
11837;SDS011;5978;51.020;6.764;2023-02-15T12:34:08;21.27;;;15.40;;
11837;SDS011;5978;51.020;6.764;2023-02-15T12:36:47;19.57;;;14.27;;
11837;SDS011;5978;51.020;6.764;2023-02-15T12:39:21;21.50;;;13.30;;
11837;SDS011;5978;51.020;6.764;2023-02-15T12:44:35;29.93;;;14.87;;
11837;SDS011;5978;51.020;6.764;2023-02-15T12:47:05;22.07;;;15.13;;
11837;SDS011;5978;51.020;6.764;2023-02-15T12:52:03;16.00;;;13.30;;
11837;SDS011;5978;51.020;6.764;2023-02-15T12:54:39;20.27;;;14.77;;
11837;SDS011;5978;51.020;6.764;2023-02-15T12:57:14;18.97;;;14.17;;
11837;SDS011;5978;51.020;6.764;2023-02-15T12:59:48;17.87;;;13.17;;
11837;SDS011;5978;51.020;6.764;2023-02-15T13:02:17;17.00;;;15.10;;
11837;SDS011;5978;51.020;6.764;2023-02-15T13:04:48;18.27;;;14.27;;
11837;SDS011;5978;51.020;6.764;2023-02-15T13:07:15;26.73;;;14.63;;
11837;SDS011;5978;51.020;6.764;2023-02-15T13:09:41;18.70;;;14.13;;
11837;SDS011;5978;51.020;6.764;2023-02-15T13:12:17;21.23;;;15.10;;
11837;SDS011;5978;51.020;6.764;2023-02-15T13:14:47;20.30;;;14.57;;
11837;SDS011;5978;51.020;6.764;2023-02-15T13:17:16;17.37;;;14.10;;
11837;SDS011;5978;51.020;6.764;2023-02-15T13:19:47;17.67;;;13.23;;
11837;SDS011;5978;51.020;6.764;2023-02-15T13:22:18;23.53;;;12.53;;
11837;SDS011;5978;51.020;6.764;2023-02-15T13:24:50;19.80;;;14.87;;
11837;SDS011;5978;51.020;6.764;2023-02-15T13:27:20;18.17;;;13.50;;
11837;SDS011;5978;51.020;6.764;2023-02-15T13:29:49;19.20;;;14.37;;
11837;SDS011;5978;51.020;6.764;2023-02-15T13:34:58;21.40;;;14.77;;
11837;SDS011;5978;51.020;6.764;2023-02-15T13:42:59;20.57;;;15.27;;
11837;SDS011;5978;51.020;6.764;2023-02-15T13:45:54;24.10;;;15.17;;
11837;SDS011;5978;51.020;6.764;2023-02-15T13:48:37;18.03;;;14.13;;
11837;SDS011;5978;51.020;6.764;2023-02-15T13:56:29;19.00;;;14.87;;
11837;SDS011;5978;51.020;6.764;2023-02-15T13:59:16;15.87;;;12.90;;
11837;SDS011;5978;51.020;6.764;2023-02-15T14:21:15;21.07;;;13.20;;
11837;SDS011;5978;51.020;6.764;2023-02-15T14:23:52;19.33;;;13.20;;
11837;SDS011;5978;51.020;6.764;2023-02-15T14:26:38;22.27;;;14.90;;
11837;SDS011;5978;51.020;6.764;2023-02-15T14:32:20;15.20;;;13.57;;
11837;SDS011;5978;51.020;6.764;2023-02-15T14:34:52;17.63;;;13.70;;
11837;SDS011;5978;51.020;6.764;2023-02-15T14:37:24;15.70;;;12.87;;
11837;SDS011;5978;51.020;6.764;2023-02-15T14:40:10;16.20;;;14.07;;
11837;SDS011;5978;51.020;6.764;2023-02-15T14:56:46;16.13;;;12.67;;
11837;SDS011;5978;51.020;6.764;2023-02-15T15:02:59;19.80;;;13.23;;
11837;SDS011;5978;51.020;6.764;2023-02-15T15:08:00;18.30;;;13.07;;
11837;SDS011;5978;51.020;6.764;2023-02-15T15:15:55;15.80;;;12.60;;
11837;SDS011;5978;51.020;6.764;2023-02-15T15:21:08;16.50;;;13.57;;
11837;SDS011;5978;51.020;6.764;2023-02-15T15:23:41;21.20;;;13.87;;
11837;SDS011;5978;51.020;6.764;2023-02-15T15:26:22;18.57;;;13.00;;
11837;SDS011;5978;51.020;6.764;2023-02-15T15:31:30;17.20;;;12.60;;
11837;SDS011;5978;51.020;6.764;2023-02-15T15:34:21;17.70;;;12.07;;
11837;SDS011;5978;51.020;6.764;2023-02-15T15:37:06;19.77;;;13.40;;
11837;SDS011;5978;51.020;6.764;2023-02-15T15:43:02;23.07;;;14.77;;
11837;SDS011;5978;51.020;6.764;2023-02-15T15:45:45;23.57;;;13.73;;
11837;SDS011;5978;51.020;6.764;2023-02-15T15:50:52;18.33;;;12.73;;
11837;SDS011;5978;51.020;6.764;2023-02-15T15:53:23;20.23;;;14.80;;
11837;SDS011;5978;51.020;6.764;2023-02-15T15:55:52;18.20;;;13.33;;
11837;SDS011;5978;51.020;6.764;2023-02-15T15:58:23;17.70;;;13.47;;
11837;SDS011;5978;51.020;6.764;2023-02-15T16:00:50;20.97;;;13.33;;
11837;SDS011;5978;51.020;6.764;2023-02-15T16:03:26;18.17;;;12.97;;
11837;SDS011;5978;51.020;6.764;2023-02-15T16:05:53;19.00;;;13.50;;
11837;SDS011;5978;51.020;6.764;2023-02-15T16:10:54;20.50;;;14.17;;
11837;SDS011;5978;51.020;6.764;2023-02-15T16:13:20;21.17;;;13.10;;
11837;SDS011;5978;51.020;6.764;2023-02-15T16:15:46;18.33;;;13.07;;
11837;SDS011;5978;51.020;6.764;2023-02-15T16:18:17;20.70;;;12.93;;
11837;SDS011;5978;51.020;6.764;2023-02-15T16:20:52;19.43;;;12.67;;
11837;SDS011;5978;51.020;6.764;2023-02-15T16:26:16;19.40;;;13.13;;
11837;SDS011;5978;51.020;6.764;2023-02-15T16:29:12;20.10;;;13.87;;
11837;SDS011;5978;51.020;6.764;2023-02-15T16:31:43;20.80;;;12.97;;
11837;SDS011;5978;51.020;6.764;2023-02-15T16:34:27;20.20;;;14.00;;
11837;SDS011;5978;51.020;6.764;2023-02-15T16:37:11;21.97;;;14.40;;
11837;SDS011;5978;51.020;6.764;2023-02-15T16:39:46;24.00;;;13.93;;
11837;SDS011;5978;51.020;6.764;2023-02-15T16:42:17;21.30;;;13.57;;
11837;SDS011;5978;51.020;6.764;2023-02-15T16:44:43;18.50;;;13.20;;
11837;SDS011;5978;51.020;6.764;2023-02-15T16:47:18;19.83;;;14.27;;
11837;SDS011;5978;51.020;6.764;2023-02-15T16:49:48;18.90;;;13.60;;
11837;SDS011;5978;51.020;6.764;2023-02-15T16:52:23;19.90;;;13.10;;
11837;SDS011;5978;51.020;6.764;2023-02-15T16:54:55;19.67;;;13.07;;
11837;SDS011;5978;51.020;6.764;2023-02-15T16:57:24;20.17;;;12.60;;
11837;SDS011;5978;51.020;6.764;2023-02-15T16:59:53;19.17;;;13.70;;
11837;SDS011;5978;51.020;6.764;2023-02-15T17:02:29;23.27;;;13.70;;
11837;SDS011;5978;51.020;6.764;2023-02-15T17:05:01;18.00;;;13.20;;
11837;SDS011;5978;51.020;6.764;2023-02-15T17:07:41;19.43;;;12.83;;
11837;SDS011;5978;51.020;6.764;2023-02-15T17:13:11;24.33;;;15.17;;
11837;SDS011;5978;51.020;6.764;2023-02-15T17:15:39;24.50;;;16.20;;
11837;SDS011;5978;51.020;6.764;2023-02-15T17:18:10;23.20;;;15.13;;
11837;SDS011;5978;51.020;6.764;2023-02-15T17:20:43;20.60;;;14.63;;
11837;SDS011;5978;51.020;6.764;2023-02-15T17:26:32;23.90;;;14.60;;
11837;SDS011;5978;51.020;6.764;2023-02-15T17:29:01;20.83;;;13.13;;
11837;SDS011;5978;51.020;6.764;2023-02-15T17:31:31;17.77;;;12.87;;
11837;SDS011;5978;51.020;6.764;2023-02-15T17:33:58;21.20;;;14.37;;
11837;SDS011;5978;51.020;6.764;2023-02-15T17:36:25;19.50;;;14.43;;
11837;SDS011;5978;51.020;6.764;2023-02-15T17:41:23;21.00;;;14.10;;
11837;SDS011;5978;51.020;6.764;2023-02-15T17:43:49;19.83;;;12.83;;
11837;SDS011;5978;51.020;6.764;2023-02-15T17:46:14;25.60;;;15.20;;